Summary for MDHALE1

Southwest Baltimore Co., Halethorpe, MD 21227
Join the PWSweather.com Network
View data in metric units
Latest Conditions
Updated 11:15:05 PM EDT Wednesday, Apr 23, 2014
Data Currently Today's Max Today's Min Today's Average
Temperature 46.0°F7.8°C 59.7°F15.4°C 46.0°F7.8°C 52.6°F11.4°C
Dew Point 32.5°F0.3°C 53.0°F11.7°C 32.4°F0.2°C 37.5°F3.1°C
Winds Calm Calm 13.7 mph NW22.0 kmh NW CalmCalm 6.6 mph10.6 kmh
Wind Gusts -- 23.9 mph38.5 kmh -- 10.9 mph17.5 kmh
Humidity 59% 88% 47% 57%
Pressure 29.95 in1014.2 mb 29.95 in1014.2 mb 29.61 in1002.7 mb 29.77 in1008.1 mb
Precipitation 0.00 in0.0 mm - - 0.00 in0.0 mm
Trends
 
Station Profile
Southwest Baltimore Co.Halethorpe, MD 21227

Lat: 39.236, Lon: -76.697
Elevation: 86
Station Type: Davis Vantage Pro2+

http://home.comcast.net/~halethorpe_weather/index.html

Detailed Summary for Wed, Apr 23, 2014
Hour (EDT) Temperature Dew Point Humidity Winds Wind Gusts Pressure Precip Precip Rate Daily Precip Total
11:15 PM 46.0°F7.8°C 32.5°F0.3°C 59% Calm Calm -- 29.95 in1014.2 mb 0.00 in0.0 mm 0.00 in/hr0.0 mm/hr 0.00 in0.0 mm
11:00 PM 46.5°F8.1°C 32.5°F0.3°C 58% 2.7 mph WNW4.3 kmh WNW 3.4 mph5.5 kmh 29.95 in1014.2 mb 0.00 in0.0 mm 0.00 in/hr0.0 mm/hr 0.00 in0.0 mm
10:45 PM 47.0°F8.3°C 32.5°F0.3°C 57% 0.1 mph NW0.2 kmh NW -- 29.95 in1014.2 mb 0.00 in0.0 mm 0.00 in/hr0.0 mm/hr 0.00 in0.0 mm
10:30 PM 47.3°F8.5°C 32.4°F0.2°C 56% 0.2 mph NW0.3 kmh NW 1.1 mph1.8 kmh 29.95 in1014.2 mb 0.00 in0.0 mm 0.00 in/hr0.0 mm/hr 0.00 in0.0 mm
10:15 PM 47.7°F8.7°C 32.4°F0.2°C 55% 2.9 mph NW4.7 kmh NW 4.6 mph7.4 kmh 29.94 in1013.9 mb 0.00 in0.0 mm 0.00 in/hr0.0 mm/hr 0.00 in0.0 mm
10:00 PM 48.1°F8.9°C 32.7°F0.4°C 55% 4.4 mph NNW7.1 kmh NNW 10.3 mph16.6 kmh 29.94 in1013.9 mb 0.00 in0.0 mm 0.00 in/hr0.0 mm/hr 0.00 in0.0 mm
09:45 PM 48.5°F9.2°C 33.1°F0.6°C 55% 5.0 mph NNW8.0 kmh NNW 10.3 mph16.6 kmh 29.93 in1013.5 mb 0.00 in0.0 mm 0.00 in/hr0.0 mm/hr 0.00 in0.0 mm
09:30 PM 49.0°F9.4°C 33.6°F0.9°C 55% 7.8 mph NNW12.6 kmh NNW 11.4 mph18.3 kmh 29.93 in1013.5 mb 0.00 in0.0 mm 0.00 in/hr0.0 mm/hr 0.00 in0.0 mm
09:15 PM 49.4°F9.7°C 33.9°F1.1°C 55% 7.0 mph NNW11.3 kmh NNW 16.0 mph25.7 kmh 29.92 in1013.2 mb 0.00 in0.0 mm 0.00 in/hr0.0 mm/hr 0.00 in0.0 mm
09:00 PM 50.0°F10.0°C 34.5°F1.4°C 55% 6.1 mph NW9.8 kmh NW 17.1 mph27.5 kmh 29.90 in1012.5 mb 0.00 in0.0 mm 0.00 in/hr0.0 mm/hr 0.00 in0.0 mm
08:45 PM 50.6°F10.3°C 34.6°F1.4°C 54% 5.5 mph WNW8.9 kmh WNW 10.3 mph16.6 kmh 29.89 in1012.2 mb 0.00 in0.0 mm 0.00 in/hr0.0 mm/hr 0.00 in0.0 mm
08:30 PM 51.4°F10.8°C 35.3°F1.8°C 54% 9.2 mph NNW14.8 kmh NNW 12.5 mph20.1 kmh 29.88 in1011.9 mb 0.00 in0.0 mm 0.00 in/hr0.0 mm/hr 0.00 in0.0 mm
08:15 PM 51.9°F11.1°C 35.8°F2.1°C 54% 5.4 mph NW8.7 kmh NW 5.7 mph9.2 kmh 29.86 in1011.2 mb 0.00 in0.0 mm 0.00 in/hr0.0 mm/hr 0.00 in0.0 mm
08:00 PM 52.1°F11.2°C 35.5°F1.9°C 53% 7.5 mph NW12.1 kmh NW 8.0 mph12.9 kmh 29.86 in1011.2 mb 0.00 in0.0 mm 0.00 in/hr0.0 mm/hr 0.00 in0.0 mm
07:45 PM 52.6°F11.4°C 35.9°F2.2°C 53% 4.2 mph NW6.8 kmh NW 6.8 mph10.9 kmh 29.85 in1010.8 mb 0.00 in0.0 mm 0.00 in/hr0.0 mm/hr 0.00 in0.0 mm
07:30 PM 53.1°F11.7°C 35.9°F2.2°C 52% 7.8 mph N12.6 kmh N 11.4 mph18.3 kmh 29.84 in1010.5 mb 0.00 in0.0 mm 0.00 in/hr0.0 mm/hr 0.00 in0.0 mm
07:15 PM 53.7°F12.1°C 36.0°F2.2°C 51% 7.2 mph N11.6 kmh N 14.8 mph23.8 kmh 29.83 in1010.2 mb 0.00 in0.0 mm 0.00 in/hr0.0 mm/hr 0.00 in0.0 mm
07:00 PM 54.1°F12.3°C 36.4°F2.4°C 51% 7.0 mph NW11.3 kmh NW 13.7 mph22.0 kmh 29.83 in1010.2 mb 0.00 in0.0 mm 0.00 in/hr0.0 mm/hr 0.00 in0.0 mm
06:45 PM 54.7°F12.6°C 36.4°F2.4°C 50% 8.7 mph NW14.0 kmh NW 17.1 mph27.5 kmh 29.82 in1009.8 mb 0.00 in0.0 mm 0.00 in/hr0.0 mm/hr 0.00 in0.0 mm
06:30 PM 55.7°F13.2°C 36.8°F2.7°C 49% 13.4 mph N21.6 kmh N 18.2 mph29.3 kmh 29.82 in1009.8 mb 0.00 in0.0 mm 0.00 in/hr0.0 mm/hr 0.00 in0.0 mm
06:15 PM 56.3°F13.5°C 38.4°F3.6°C 51% 4.3 mph NW6.9 kmh NW 11.4 mph18.3 kmh 29.82 in1009.8 mb 0.00 in0.0 mm 0.00 in/hr0.0 mm/hr 0.00 in0.0 mm
06:00 PM 56.8°F13.8°C 37.8°F3.2°C 49% 9.8 mph NW15.8 kmh NW 16.0 mph25.7 kmh 29.81 in1009.5 mb 0.00 in0.0 mm 0.00 in/hr0.0 mm/hr 0.00 in0.0 mm
05:45 PM 57.3°F14.1°C 38.8°F3.8°C 50% 4.6 mph NW7.4 kmh NW 6.8 mph10.9 kmh 29.81 in1009.5 mb 0.00 in0.0 mm 0.00 in/hr0.0 mm/hr 0.00 in0.0 mm
05:30 PM 57.1°F13.9°C 38.1°F3.4°C 49% 9.4 mph NW15.1 kmh NW 14.8 mph23.8 kmh 29.81 in1009.5 mb 0.00 in0.0 mm 0.00 in/hr0.0 mm/hr 0.00 in0.0 mm
05:15 PM 57.4°F14.1°C 38.4°F3.6°C 49% 8.6 mph NNW13.8 kmh NNW 11.4 mph18.3 kmh 29.81 in1009.5 mb 0.00 in0.0 mm 0.00 in/hr0.0 mm/hr 0.00 in0.0 mm
05:00 PM 58.4°F14.7°C 38.8°F3.8°C 48% 3.9 mph SW6.3 kmh SW 3.4 mph5.5 kmh 29.80 in1009.1 mb 0.00 in0.0 mm 0.00 in/hr0.0 mm/hr 0.00 in0.0 mm
04:45 PM 57.8°F14.3°C 38.2°F3.4°C 48% 10.3 mph NW16.6 kmh NW 14.8 mph23.8 kmh 29.80 in1009.1 mb 0.00 in0.0 mm 0.00 in/hr0.0 mm/hr 0.00 in0.0 mm
04:30 PM 58.3°F14.6°C 39.2°F4.0°C 49% 8.9 mph NW14.3 kmh NW 17.1 mph27.5 kmh 29.79 in1008.8 mb 0.00 in0.0 mm 0.00 in/hr0.0 mm/hr 0.00 in0.0 mm
04:15 PM 57.8°F14.3°C 38.2°F3.4°C 48% 13.0 mph WNW20.9 kmh WNW 19.4 mph31.2 kmh 29.79 in1008.8 mb 0.00 in0.0 mm 0.00 in/hr0.0 mm/hr 0.00 in0.0 mm
04:00 PM 58.0°F14.4°C 38.4°F3.6°C 48% 10.9 mph NW17.5 kmh NW 18.2 mph29.3 kmh 29.79 in1008.8 mb 0.00 in0.0 mm 0.00 in/hr0.0 mm/hr 0.00 in0.0 mm
03:45 PM 58.3°F14.6°C 38.1°F3.4°C 47% 10.2 mph N16.4 kmh N 12.5 mph20.1 kmh 29.79 in1008.8 mb 0.00 in0.0 mm 0.00 in/hr0.0 mm/hr 0.00 in0.0 mm
03:30 PM 58.4°F14.7°C 38.8°F3.8°C 48% 5.2 mph N8.4 kmh N 6.8 mph10.9 kmh 29.79 in1008.8 mb 0.00 in0.0 mm 0.00 in/hr0.0 mm/hr 0.00 in0.0 mm
03:15 PM 58.9°F14.9°C 38.7°F3.7°C 47% 13.3 mph NW21.4 kmh NW 18.2 mph29.3 kmh 29.78 in1008.5 mb 0.00 in0.0 mm 0.00 in/hr0.0 mm/hr 0.00 in0.0 mm
03:00 PM 59.7°F15.4°C 39.9°F4.4°C 48% 7.2 mph NNW11.6 kmh NNW 12.5 mph20.1 kmh 29.78 in1008.5 mb 0.00 in0.0 mm 0.00 in/hr0.0 mm/hr 0.00 in0.0 mm
02:45 PM 59.0°F15.0°C 39.3°F4.1°C 48% 6.6 mph NNE10.6 kmh NNE 11.4 mph18.3 kmh 29.78 in1008.5 mb 0.00 in0.0 mm 0.00 in/hr0.0 mm/hr 0.00 in0.0 mm
02:30 PM 59.6°F15.3°C 39.8°F4.3°C 48% 8.3 mph WNW13.4 kmh WNW 19.4 mph31.2 kmh 29.78 in1008.5 mb 0.00 in0.0 mm 0.00 in/hr0.0 mm/hr 0.00 in0.0 mm
02:15 PM 57.9°F14.4°C 38.3°F3.5°C 48% 8.6 mph NW13.8 kmh NW 14.8 mph23.8 kmh 29.77 in1008.1 mb 0.00 in0.0 mm 0.00 in/hr0.0 mm/hr 0.00 in0.0 mm
02:00 PM 58.4°F14.7°C 39.8°F4.3°C 50% 5.1 mph N8.2 kmh N 17.1 mph27.5 kmh 29.78 in1008.5 mb 0.00 in0.0 mm 0.00 in/hr0.0 mm/hr 0.00 in0.0 mm
01:45 PM 57.0°F13.9°C 38.6°F3.7°C 50% 9.0 mph WNW14.5 kmh WNW 13.7 mph22.0 kmh 29.77 in1008.1 mb 0.00 in0.0 mm 0.00 in/hr0.0 mm/hr 0.00 in0.0 mm
01:30 PM 57.7°F14.3°C 38.7°F3.7°C 49% 7.4 mph N11.9 kmh N 16.0 mph25.7 kmh 29.77 in1008.1 mb 0.00 in0.0 mm 0.00 in/hr0.0 mm/hr 0.00 in0.0 mm
01:15 PM 57.2°F14.0°C 39.7°F4.3°C 52% 7.5 mph NNW12.1 kmh NNW 11.4 mph18.3 kmh 29.77 in1008.1 mb 0.00 in0.0 mm 0.00 in/hr0.0 mm/hr 0.00 in0.0 mm
01:00 PM 56.7°F13.7°C 38.2°F3.4°C 50% 7.8 mph W12.6 kmh W 12.5 mph20.1 kmh 29.77 in1008.1 mb 0.00 in0.0 mm 0.00 in/hr0.0 mm/hr 0.00 in0.0 mm
12:45 PM 55.8°F13.2°C 37.9°F3.3°C 51% 9.2 mph NNE14.8 kmh NNE 12.5 mph20.1 kmh 29.77 in1008.1 mb 0.00 in0.0 mm 0.00 in/hr0.0 mm/hr 0.00 in0.0 mm
12:30 PM 55.9°F13.3°C 38.5°F3.6°C 52% 6.8 mph NE10.9 kmh NE 11.4 mph18.3 kmh 29.78 in1008.5 mb 0.00 in0.0 mm 0.00 in/hr0.0 mm/hr 0.00 in0.0 mm
12:15 PM 54.7°F12.6°C 37.4°F3.0°C 52% 11.6 mph NW18.7 kmh NW 18.2 mph29.3 kmh 29.77 in1008.1 mb 0.00 in0.0 mm 0.00 in/hr0.0 mm/hr 0.00 in0.0 mm
12:00 PM 54.6°F12.6°C 37.8°F3.2°C 53% 8.7 mph N14.0 kmh N 11.4 mph18.3 kmh 29.77 in1008.1 mb 0.00 in0.0 mm 0.00 in/hr0.0 mm/hr 0.00 in0.0 mm
11:45 AM 54.0°F12.2°C 36.7°F2.6°C 52% 12.1 mph NNE19.5 kmh NNE 12.5 mph20.1 kmh 29.78 in1008.5 mb 0.00 in0.0 mm 0.00 in/hr0.0 mm/hr 0.00 in0.0 mm
11:30 AM 53.2°F11.8°C 36.5°F2.5°C 53% 10.0 mph N16.1 kmh N 20.5 mph33.0 kmh 29.78 in1008.5 mb 0.00 in0.0 mm 0.00 in/hr0.0 mm/hr 0.00 in0.0 mm
11:15 AM 53.6°F12.0°C 36.3°F2.4°C 52% 8.6 mph N13.8 kmh N 6.8 mph10.9 kmh 29.78 in1008.5 mb 0.00 in0.0 mm 0.00 in/hr0.0 mm/hr 0.00 in0.0 mm
11:00 AM 51.7°F10.9°C 35.6°F2.0°C 54% 10.2 mph N16.4 kmh N 12.5 mph20.1 kmh 29.78 in1008.5 mb 0.00 in0.0 mm 0.00 in/hr0.0 mm/hr 0.00 in0.0 mm
10:45 AM 51.0°F10.6°C 34.5°F1.4°C 53% 9.7 mph NW15.6 kmh NW 12.5 mph20.1 kmh 29.78 in1008.5 mb 0.00 in0.0 mm 0.00 in/hr0.0 mm/hr 0.00 in0.0 mm
10:30 AM 50.9°F10.5°C 35.8°F2.1°C 56% 6.3 mph NW10.1 kmh NW 9.1 mph14.6 kmh 29.78 in1008.5 mb 0.00 in0.0 mm 0.00 in/hr0.0 mm/hr 0.00 in0.0 mm
10:15 AM 50.3°F10.2°C 34.8°F1.6°C 55% 6.7 mph N10.8 kmh N 12.5 mph20.1 kmh 29.78 in1008.5 mb 0.00 in0.0 mm 0.00 in/hr0.0 mm/hr 0.00 in0.0 mm
10:00 AM 50.4°F10.2°C 35.3°F1.8°C 56% 4.8 mph WNW7.7 kmh WNW 11.4 mph18.3 kmh 29.78 in1008.5 mb 0.00 in0.0 mm 0.00 in/hr0.0 mm/hr 0.00 in0.0 mm
09:45 AM 50.3°F10.2°C 34.7°F1.5°C 55% 6.8 mph WNW10.9 kmh WNW 10.3 mph16.6 kmh 29.77 in1008.1 mb 0.00 in0.0 mm 0.00 in/hr0.0 mm/hr 0.00 in0.0 mm
09:30 AM 50.2°F10.1°C 35.6°F2.0°C 57% 6.4 mph NNW10.3 kmh NNW 8.0 mph12.9 kmh 29.77 in1008.1 mb 0.00 in0.0 mm 0.00 in/hr0.0 mm/hr 0.00 in0.0 mm
09:15 AM 50.4°F10.2°C 35.3°F1.8°C 56% 3.8 mph NW6.1 kmh NW 8.0 mph12.9 kmh 29.77 in1008.1 mb 0.00 in0.0 mm 0.00 in/hr0.0 mm/hr 0.00 in0.0 mm
09:00 AM 50.3°F10.2°C 35.7°F2.1°C 57% 4.1 mph NNW6.6 kmh NNW 16.0 mph25.7 kmh 29.76 in1007.8 mb 0.00 in0.0 mm 0.00 in/hr0.0 mm/hr 0.00 in0.0 mm
08:45 AM 49.5°F9.7°C 34.9°F1.6°C 57% 12.2 mph W19.6 kmh W 23.9 mph38.5 kmh 29.76 in1007.8 mb 0.00 in0.0 mm 0.00 in/hr0.0 mm/hr 0.00 in0.0 mm
08:30 AM 48.9°F9.4°C 35.2°F1.8°C 59% 4.9 mph NW7.9 kmh NW 8.0 mph12.9 kmh 29.76 in1007.8 mb 0.00 in0.0 mm 0.00 in/hr0.0 mm/hr 0.00 in0.0 mm
08:15 AM 48.7°F9.3°C 35.8°F2.1°C 61% 8.5 mph WNW13.7 kmh WNW 20.5 mph33.0 kmh 29.76 in1007.8 mb 0.00 in0.0 mm 0.00 in/hr0.0 mm/hr 0.00 in0.0 mm
08:00 AM 48.5°F9.2°C 35.7°F2.1°C 61% 1.8 mph NW2.9 kmh NW 8.0 mph12.9 kmh 29.76 in1007.8 mb 0.00 in0.0 mm 0.00 in/hr0.0 mm/hr 0.00 in0.0 mm
07:45 AM 48.4°F9.1°C 36.0°F2.2°C 62% 7.9 mph NW12.7 kmh NW 13.7 mph22.0 kmh 29.74 in1007.1 mb 0.00 in0.0 mm 0.00 in/hr0.0 mm/hr 0.00 in0.0 mm
07:30 AM 48.1°F8.9°C 36.9°F2.7°C 65% 2.8 mph NW4.5 kmh NW 4.6 mph7.4 kmh 29.74 in1007.1 mb 0.00 in0.0 mm 0.00 in/hr0.0 mm/hr 0.00 in0.0 mm
07:15 AM 47.6°F8.7°C 36.8°F2.7°C 66% 5.7 mph W9.2 kmh W 11.4 mph18.3 kmh 29.74 in1007.1 mb 0.00 in0.0 mm 0.00 in/hr0.0 mm/hr 0.00 in0.0 mm
07:00 AM 47.0°F8.3°C 37.0°F2.8°C 68% 5.1 mph W8.2 kmh W 8.0 mph12.9 kmh 29.73 in1006.8 mb 0.00 in0.0 mm 0.00 in/hr0.0 mm/hr 0.00 in0.0 mm
06:45 AM 46.6°F8.1°C 36.6°F2.6°C 68% 3.7 mph N6.0 kmh N 3.4 mph5.5 kmh 29.72 in1006.4 mb 0.00 in0.0 mm 0.00 in/hr0.0 mm/hr 0.00 in0.0 mm
06:30 AM 46.8°F8.2°C 36.8°F2.7°C 68% Calm Calm -- 29.71 in1006.1 mb 0.00 in0.0 mm 0.00 in/hr0.0 mm/hr 0.00 in0.0 mm
06:15 AM 46.9°F8.3°C 36.9°F2.7°C 68% 1.0 mph WNW1.6 kmh WNW 3.4 mph5.5 kmh 29.70 in1005.8 mb 0.00 in0.0 mm 0.00 in/hr0.0 mm/hr 0.00 in0.0 mm
06:00 AM 46.9°F8.3°C 36.9°F2.7°C 68% 1.6 mph WNW2.6 kmh WNW 5.7 mph9.2 kmh 29.70 in1005.8 mb 0.00 in0.0 mm 0.00 in/hr0.0 mm/hr 0.00 in0.0 mm
05:45 AM 47.2°F8.4°C 36.4°F2.4°C 66% 1.2 mph NW1.9 kmh NW 2.3 mph3.7 kmh 29.70 in1005.8 mb 0.00 in0.0 mm 0.00 in/hr0.0 mm/hr 0.00 in0.0 mm
05:30 AM 47.7°F8.7°C 36.1°F2.3°C 64% 1.6 mph NW2.6 kmh NW 1.1 mph1.8 kmh 29.69 in1005.4 mb 0.00 in0.0 mm 0.00 in/hr0.0 mm/hr 0.00 in0.0 mm
05:15 AM 48.5°F9.2°C 36.1°F2.3°C 62% Calm Calm -- 29.69 in1005.4 mb 0.00 in0.0 mm 0.00 in/hr0.0 mm/hr 0.00 in0.0 mm
05:00 AM 49.2°F9.6°C 35.9°F2.2°C 60% 2.6 mph NW4.2 kmh NW 4.6 mph7.4 kmh 29.69 in1005.4 mb 0.00 in0.0 mm 0.00 in/hr0.0 mm/hr 0.00 in0.0 mm
04:45 AM 49.6°F9.8°C 35.8°F2.1°C 59% 5.1 mph NW8.2 kmh NW 8.0 mph12.9 kmh 29.69 in1005.4 mb 0.00 in0.0 mm 0.00 in/hr0.0 mm/hr 0.00 in0.0 mm
04:30 AM 49.6°F9.8°C 36.3°F2.4°C 60% 7.1 mph NW11.4 kmh NW 11.4 mph18.3 kmh 29.68 in1005.1 mb 0.00 in0.0 mm 0.00 in/hr0.0 mm/hr 0.00 in0.0 mm
04:15 AM 49.4°F9.7°C 36.5°F2.5°C 61% 8.5 mph W13.7 kmh W 8.0 mph12.9 kmh 29.68 in1005.1 mb 0.00 in0.0 mm 0.00 in/hr0.0 mm/hr 0.00 in0.0 mm
04:00 AM 50.0°F10.0°C 37.1°F2.8°C 61% 2.1 mph NNE3.4 kmh NNE 1.1 mph1.8 kmh 29.67 in1004.7 mb 0.00 in0.0 mm 0.00 in/hr0.0 mm/hr 0.00 in0.0 mm
03:45 AM 50.4°F10.2°C 37.0°F2.8°C 60% 6.6 mph NNE10.6 kmh NNE 8.0 mph12.9 kmh 29.66 in1004.4 mb 0.00 in0.0 mm 0.00 in/hr0.0 mm/hr 0.00 in0.0 mm
03:30 AM 50.7°F10.4°C 36.9°F2.7°C 59% 10.9 mph NNW17.5 kmh NNW 16.0 mph25.7 kmh 29.65 in1004.1 mb 0.00 in0.0 mm 0.00 in/hr0.0 mm/hr 0.00 in0.0 mm
03:15 AM 51.2°F10.7°C 36.9°F2.7°C 58% 10.5 mph NW16.9 kmh NW 19.4 mph31.2 kmh 29.65 in1004.1 mb 0.00 in0.0 mm 0.00 in/hr0.0 mm/hr 0.00 in0.0 mm
03:00 AM 51.3°F10.7°C 37.0°F2.8°C 58% 13.7 mph NW22.0 kmh NW 14.8 mph23.8 kmh 29.65 in1004.1 mb 0.00 in0.0 mm 0.00 in/hr0.0 mm/hr 0.00 in0.0 mm
02:45 AM 51.6°F10.9°C 37.3°F2.9°C 58% 9.1 mph NNW14.6 kmh NNW 16.0 mph25.7 kmh 29.64 in1003.7 mb 0.00 in0.0 mm 0.00 in/hr0.0 mm/hr 0.00 in0.0 mm
02:30 AM 51.9°F11.1°C 38.0°F3.3°C 59% 5.7 mph NNW9.2 kmh NNW 14.8 mph23.8 kmh 29.64 in1003.7 mb 0.00 in0.0 mm 0.00 in/hr0.0 mm/hr 0.00 in0.0 mm
02:15 AM 52.0°F11.1°C 38.5°F3.6°C 60% 13.0 mph NW20.9 kmh NW 20.5 mph33.0 kmh 29.63 in1003.4 mb 0.00 in0.0 mm 0.00 in/hr0.0 mm/hr 0.00 in0.0 mm
02:00 AM 52.5°F11.4°C 39.0°F3.9°C 60% 6.5 mph NNW10.5 kmh NNW 8.0 mph12.9 kmh 29.65 in1004.1 mb 0.00 in0.0 mm 0.00 in/hr0.0 mm/hr 0.00 in0.0 mm
01:45 AM 53.2°F11.8°C 39.6°F4.2°C 60% 7.0 mph NW11.3 kmh NW 13.7 mph22.0 kmh 29.65 in1004.1 mb 0.00 in0.0 mm 0.00 in/hr0.0 mm/hr 0.00 in0.0 mm
01:30 AM 54.2°F12.3°C 43.4°F6.3°C 67% 5.8 mph N9.3 kmh N 16.0 mph25.7 kmh 29.65 in1004.1 mb 0.00 in0.0 mm 0.00 in/hr0.0 mm/hr 0.00 in0.0 mm
01:15 AM 55.1°F12.8°C 45.5°F7.5°C 70% 2.9 mph N4.7 kmh N 4.6 mph7.4 kmh 29.65 in1004.1 mb 0.00 in0.0 mm 0.00 in/hr0.0 mm/hr 0.00 in0.0 mm
01:00 AM 55.6°F13.1°C 46.0°F7.8°C 70% 8.1 mph NNW13.0 kmh NNW 10.3 mph16.6 kmh 29.64 in1003.7 mb 0.00 in0.0 mm 0.00 in/hr0.0 mm/hr 0.00 in0.0 mm
12:45 AM 56.1°F13.4°C 47.9°F8.8°C 74% 5.5 mph NW8.9 kmh NW 8.0 mph12.9 kmh 29.63 in1003.4 mb 0.00 in0.0 mm 0.00 in/hr0.0 mm/hr 0.00 in0.0 mm
12:30 AM 56.3°F13.5°C 49.2°F9.6°C 77% 4.7 mph NW7.6 kmh NW 4.6 mph7.4 kmh 29.63 in1003.4 mb 0.00 in0.0 mm 0.00 in/hr0.0 mm/hr 0.00 in0.0 mm
12:15 AM 56.3°F13.5°C 51.2°F10.7°C 83% 4.6 mph NNW7.4 kmh NNW 6.8 mph10.9 kmh 29.63 in1003.4 mb 0.00 in0.0 mm 0.00 in/hr0.0 mm/hr 0.00 in0.0 mm
12:01 AM 56.5°F13.6°C 53.0°F11.7°C 88% 6.0 mph N9.7 kmh N 10.3 mph16.6 kmh 29.61 in1002.7 mb 0.00 in0.0 mm 0.00 in/hr0.0 mm/hr 0.00 in0.0 mm
WeatherForYou.com, LLC is not responsible for any damages or problems caused by this service. Current weather conditions are obtained from the closest station including government and personal stations which may have varying degrees of accuracy. Weather forecasts are derived from the NOAA NDFD and obtained through HAMweather's Aeris Weather API. Like all things, this site belongs to Jesus Christ... He just trusts me to maintain it. If you have any questions or comments email webmaster@weatherforyou.com

Copyright © 2014, WeatherForYou.com LLC. All rights reserved.